createdAt,value
2022-12-24T00:01:53.967Z,52.30
2022-12-24T00:04:23.045Z,39.38
2022-12-24T00:06:52.301Z,40.58
2022-12-24T00:09:21.442Z,42.00
2022-12-24T00:11:50.689Z,46.55
2022-12-24T00:14:21.286Z,45.88
2022-12-24T00:16:50.819Z,49.22
2022-12-24T00:19:19.913Z,59.03
2022-12-24T00:21:49.513Z,58.38
2022-12-24T00:24:18.679Z,62.90
2022-12-24T00:26:48.068Z,67.88
2022-12-24T00:29:17.469Z,80.93
2022-12-24T00:31:48.092Z,56.60
2022-12-24T00:34:17.069Z,56.25
2022-12-24T00:36:46.488Z,54.72
2022-12-24T00:39:15.697Z,57.45
2022-12-24T00:41:45.039Z,67.13
2022-12-24T00:44:14.218Z,54.95
2022-12-24T00:46:43.849Z,64.47
2022-12-24T00:49:14.777Z,53.88
2022-12-24T00:51:44.099Z,48.55
2022-12-24T00:54:14.600Z,51.07
2022-12-24T00:56:44.080Z,59.75
2022-12-24T00:59:13.055Z,58.17
2022-12-24T01:01:42.695Z,51.60
2022-12-24T01:04:30.690Z,52.28
2022-12-24T01:07:00.307Z,51.70
2022-12-24T01:09:29.306Z,44.90
2022-12-24T01:11:58.788Z,53.30
2022-12-24T01:14:27.887Z,60.67
2022-12-24T01:16:57.139Z,56.38
2022-12-24T01:19:27.752Z,49.88
2022-12-24T01:21:57.167Z,53.15
2022-12-24T01:24:26.110Z,53.92
2022-12-24T01:26:55.425Z,51.25
2022-12-24T01:29:24.522Z,51.78
2022-12-24T01:31:53.860Z,51.22
2022-12-24T01:34:22.979Z,41.90
2022-12-24T01:36:53.593Z,49.65
2022-12-24T01:39:22.586Z,47.50
2022-12-24T01:42:09.157Z,44.00
2022-12-24T01:44:43.151Z,47.38
2022-12-24T01:47:17.208Z,48.72
2022-12-24T01:49:52.568Z,52.03
2022-12-24T01:52:26.944Z,42.05
2022-12-24T01:54:59.901Z,40.83
2022-12-24T01:57:31.519Z,50.40
2022-12-24T02:00:05.069Z,49.38
2022-12-24T02:02:36.884Z,44.70
2022-12-24T02:05:11.152Z,47.72
2022-12-24T02:07:42.411Z,49.70
2022-12-24T02:10:13.947Z,54.38
2022-12-24T02:12:45.123Z,44.30
2022-12-24T02:15:20.235Z,51.80
2022-12-24T02:17:57.010Z,46.25
2022-12-24T02:21:04.070Z,55.47
2022-12-24T02:24:13.277Z,47.30
2022-12-24T02:27:03.534Z,44.75
2022-12-24T02:30:03.144Z,53.38
2022-12-24T02:32:46.300Z,67.07
2022-12-24T02:35:20.693Z,78.57
2022-12-24T02:37:52.824Z,59.00
2022-12-24T02:40:26.244Z,45.53
2022-12-24T02:43:00.575Z,48.55
2022-12-24T02:45:32.911Z,41.85
2022-12-24T02:48:03.940Z,42.90
2022-12-24T02:50:33.407Z,39.70
2022-12-24T02:53:02.464Z,47.33
2022-12-24T02:55:41.091Z,43.17
2022-12-24T02:58:26.242Z,45.03
2022-12-24T03:01:17.359Z,37.50
2022-12-24T03:04:01.385Z,35.92
2022-12-24T03:06:42.262Z,34.90
2022-12-24T03:09:18.264Z,32.22
2022-12-24T03:11:55.660Z,40.47
2022-12-24T03:14:26.363Z,28.35
2022-12-24T03:16:56.248Z,31.23
2022-12-24T03:19:27.756Z,34.40
2022-12-24T03:22:00.592Z,27.17
2022-12-24T03:24:29.891Z,44.95
2022-12-24T03:27:00.882Z,41.28
2022-12-24T03:29:29.968Z,43.70
2022-12-24T03:32:03.470Z,38.53
2022-12-24T03:34:34.111Z,41.15
2022-12-24T03:37:04.324Z,33.70
2022-12-24T03:39:33.394Z,30.48
2022-12-24T03:42:02.820Z,38.75
2022-12-24T03:44:31.819Z,47.63
2022-12-24T03:47:01.135Z,36.20
2022-12-24T03:49:30.154Z,33.67
2022-12-24T03:52:00.778Z,30.63
2022-12-24T03:54:29.977Z,43.45
2022-12-24T03:56:59.313Z,39.72
2022-12-24T03:59:28.893Z,32.25
2022-12-24T04:01:58.248Z,38.42
2022-12-24T04:04:27.654Z,38.10
2022-12-24T04:06:56.921Z,41.75
2022-12-24T04:09:27.424Z,46.50
2022-12-24T04:11:56.849Z,43.75
2022-12-24T04:14:26.095Z,34.83
2022-12-24T04:16:55.529Z,32.60
2022-12-24T04:19:24.547Z,29.65
2022-12-24T04:21:53.799Z,34.60
2022-12-24T04:24:22.770Z,35.35
2022-12-24T04:26:53.603Z,32.83
2022-12-24T04:29:22.770Z,30.77
2022-12-24T04:31:52.180Z,26.77
2022-12-24T04:34:21.217Z,27.97
2022-12-24T04:36:50.622Z,26.05
2022-12-24T04:39:19.785Z,26.00
2022-12-24T04:41:49.069Z,29.42
2022-12-24T04:44:19.507Z,30.52
2022-12-24T04:46:49.117Z,29.25
2022-12-24T04:49:18.256Z,29.52
2022-12-24T04:51:47.530Z,33.33
2022-12-24T04:54:16.683Z,31.60
2022-12-24T04:56:45.963Z,22.85
2022-12-24T04:59:15.047Z,25.30
2022-12-24T05:01:45.856Z,22.48
2022-12-24T05:04:15.060Z,28.70
2022-12-24T05:06:44.345Z,25.63
2022-12-24T05:09:14.220Z,20.20
2022-12-24T05:11:43.471Z,26.67
2022-12-24T05:14:12.741Z,20.90
2022-12-24T05:16:42.070Z,17.85
2022-12-24T05:19:12.758Z,26.10
2022-12-24T05:21:42.162Z,25.05
2022-12-24T05:24:30.530Z,24.60
2022-12-24T05:27:00.714Z,21.60
2022-12-24T05:29:29.792Z,25.20
2022-12-24T05:31:59.073Z,28.60
2022-12-24T05:34:29.449Z,27.13
2022-12-24T05:36:58.806Z,32.47
2022-12-24T05:39:27.778Z,36.45
2022-12-24T05:41:57.149Z,23.98
2022-12-24T05:44:26.146Z,21.40
2022-12-24T05:46:55.557Z,22.65
2022-12-24T05:49:24.624Z,24.47
2022-12-24T05:51:55.423Z,20.15
2022-12-24T05:54:24.692Z,23.73
2022-12-24T05:56:53.928Z,29.85
2022-12-24T05:59:22.993Z,24.80
2022-12-24T06:01:52.314Z,25.00
2022-12-24T06:04:28.241Z,20.48
2022-12-24T06:06:59.573Z,25.42
2022-12-24T06:09:28.542Z,23.70
2022-12-24T06:11:57.911Z,22.83
2022-12-24T06:14:26.940Z,19.35
2022-12-24T06:16:56.340Z,18.88
2022-12-24T06:19:25.706Z,16.37
2022-12-24T06:21:55.035Z,22.15
2022-12-24T06:24:25.697Z,25.93
2022-12-24T06:26:55.119Z,23.65
2022-12-24T06:29:25.627Z,15.20
2022-12-24T06:31:56.527Z,22.48
2022-12-24T06:34:25.538Z,26.47
2022-12-24T06:36:54.962Z,23.77
2022-12-24T06:39:26.973Z,24.20
2022-12-24T06:41:56.395Z,24.55
2022-12-24T06:44:26.538Z,24.20
2022-12-24T06:46:55.961Z,22.25
2022-12-24T06:49:25.026Z,19.85
2022-12-24T06:51:54.520Z,39.30
2022-12-24T06:54:23.525Z,47.72
2022-12-24T06:56:57.605Z,26.63
2022-12-24T06:59:27.002Z,23.55
2022-12-24T07:01:56.691Z,24.08
2022-12-24T07:04:26.002Z,19.38
2022-12-24T07:06:55.397Z,26.60
2022-12-24T07:09:24.651Z,21.15
2022-12-24T07:11:55.383Z,24.13
2022-12-24T07:14:24.494Z,29.33
2022-12-24T07:16:58.976Z,22.55
2022-12-24T07:19:28.626Z,24.77
2022-12-24T07:21:57.910Z,26.90
2022-12-24T07:24:27.146Z,22.58
2022-12-24T07:26:57.763Z,26.20
2022-12-24T07:29:26.901Z,80.88
2022-12-24T07:31:56.258Z,30.58
2022-12-24T07:34:25.458Z,31.00
2022-12-24T07:36:54.909Z,24.02
2022-12-24T07:39:24.350Z,22.63
2022-12-24T07:41:53.626Z,27.55
2022-12-24T07:44:24.173Z,20.98
2022-12-24T07:46:53.525Z,23.67
2022-12-24T07:49:22.703Z,23.13
2022-12-24T07:51:52.012Z,24.20
2022-12-24T07:54:21.136Z,27.00
2022-12-24T07:56:50.389Z,30.38
2022-12-24T07:59:19.364Z,22.50
2022-12-24T08:01:50.155Z,21.05
2022-12-24T08:04:19.475Z,23.65
2022-12-24T08:06:48.825Z,25.25
2022-12-24T08:09:17.998Z,27.88
2022-12-24T08:11:52.007Z,28.63
2022-12-24T08:14:22.050Z,28.73
2022-12-24T08:16:52.794Z,27.73
2022-12-24T08:19:22.930Z,26.40
2022-12-24T08:21:52.456Z,28.75
2022-12-24T08:24:21.600Z,34.88
2022-12-24T08:26:50.867Z,39.28
2022-12-24T08:29:19.957Z,33.45
2022-12-24T08:31:49.301Z,31.33
2022-12-24T08:34:19.852Z,25.60
2022-12-24T08:36:49.088Z,26.63
2022-12-24T08:39:18.243Z,28.08
2022-12-24T08:41:47.489Z,22.95
2022-12-24T08:44:16.541Z,23.87
2022-12-24T08:46:46.608Z,22.38
2022-12-24T08:49:16.081Z,25.70
2022-12-24T08:51:46.714Z,29.08
2022-12-24T08:54:16.132Z,23.80
2022-12-24T08:56:45.431Z,27.20
2022-12-24T08:59:14.593Z,25.40
2022-12-24T09:01:44.040Z,41.75
2022-12-24T09:04:13.344Z,34.92
2022-12-24T09:06:42.776Z,36.28
2022-12-24T09:09:13.278Z,47.33
2022-12-24T09:11:42.580Z,54.08
2022-12-24T09:14:11.715Z,46.85
2022-12-24T09:16:41.111Z,38.08
2022-12-24T09:19:10.289Z,35.75
2022-12-24T09:21:39.929Z,44.50
2022-12-24T09:24:09.499Z,38.88
2022-12-24T09:26:42.707Z,38.47
2022-12-24T09:29:12.562Z,39.22
2022-12-24T09:31:42.071Z,41.97
2022-12-24T09:34:11.295Z,42.30
2022-12-24T09:36:40.554Z,38.80
2022-12-24T09:39:10.255Z,44.45
2022-12-24T09:41:48.780Z,33.22
2022-12-24T09:44:30.565Z,35.38
2022-12-24T09:47:09.928Z,37.30
2022-12-24T09:49:43.372Z,40.13
2022-12-24T09:52:16.290Z,40.95
2022-12-24T09:54:51.606Z,43.08
2022-12-24T09:57:27.954Z,52.38
2022-12-24T09:59:57.593Z,60.70
2022-12-24T10:02:27.101Z,41.80
2022-12-24T10:04:57.080Z,31.20
2022-12-24T10:07:38.336Z,30.70
2022-12-24T10:10:19.592Z,27.23
2022-12-24T10:12:59.302Z,17.50
2022-12-24T10:15:32.515Z,10.57
2022-12-24T10:18:19.287Z,9.27
2022-12-24T10:20:55.936Z,8.07
2022-12-24T10:23:33.430Z,5.93
2022-12-24T10:26:12.605Z,9.95
2022-12-24T10:28:49.010Z,6.32
2022-12-24T10:31:20.681Z,5.13
2022-12-24T10:33:55.088Z,8.68
2022-12-24T10:36:29.118Z,7.70
2022-12-24T10:38:59.132Z,6.90
2022-12-24T10:41:30.310Z,7.78
2022-12-24T10:44:01.850Z,8.88
2022-12-24T10:46:36.307Z,8.18
2022-12-24T10:49:08.281Z,9.57
2022-12-24T10:51:43.538Z,8.70
2022-12-24T10:54:20.872Z,7.53
2022-12-24T10:57:00.416Z,9.18
2022-12-24T10:59:35.478Z,6.72
2022-12-24T11:02:04.652Z,9.27
2022-12-24T11:04:46.938Z,8.52
2022-12-24T11:07:21.956Z,7.03
2022-12-24T11:09:58.397Z,10.70
2022-12-24T11:12:30.818Z,7.07
2022-12-24T11:15:05.527Z,6.88
2022-12-24T11:17:40.158Z,7.80
2022-12-24T11:22:51.872Z,8.40
2022-12-24T11:25:24.124Z,8.30
2022-12-24T11:27:53.723Z,8.02
2022-12-24T11:30:30.556Z,9.00
2022-12-24T11:33:25.885Z,8.32
2022-12-24T11:36:07.778Z,8.20
2022-12-24T11:38:38.220Z,9.30
2022-12-24T11:41:13.353Z,10.05
2022-12-24T11:43:48.348Z,8.70
2022-12-24T11:46:23.474Z,15.63
2022-12-24T11:49:21.757Z,11.98
2022-12-24T11:52:22.660Z,11.40
2022-12-24T11:55:15.457Z,12.73
2022-12-24T11:57:54.416Z,10.77
2022-12-24T12:00:25.607Z,10.23
2022-12-24T12:03:01.028Z,9.13
2022-12-24T12:05:33.661Z,9.30
2022-12-24T12:08:15.270Z,12.38
2022-12-24T12:10:46.529Z,12.05
2022-12-24T12:13:18.858Z,15.45
2022-12-24T12:15:50.907Z,15.05
2022-12-24T12:18:25.641Z,14.07
2022-12-24T12:21:01.880Z,13.93
2022-12-24T12:23:35.405Z,10.77
2022-12-24T12:26:11.935Z,13.75
2022-12-24T12:28:46.939Z,9.60
2022-12-24T12:31:22.390Z,8.95
2022-12-24T12:33:58.818Z,9.65
2022-12-24T12:36:33.873Z,11.25
2022-12-24T12:39:03.343Z,14.27
2022-12-24T12:41:49.794Z,16.33
2022-12-24T12:44:45.430Z,16.50
2022-12-24T12:47:32.955Z,17.73
2022-12-24T12:50:12.528Z,12.13
2022-12-24T12:52:59.969Z,10.90
2022-12-24T12:55:40.458Z,11.25
2022-12-24T12:58:20.496Z,9.25
2022-12-24T13:00:54.003Z,9.55
2022-12-24T13:04:01.523Z,14.38
2022-12-24T13:06:57.161Z,9.50
2022-12-24T13:09:58.581Z,11.00
2022-12-24T13:12:42.409Z,9.85
2022-12-24T13:15:41.321Z,9.23
2022-12-24T13:18:31.416Z,18.38
2022-12-24T13:23:31.276Z,21.80
2022-12-24T13:26:00.952Z,26.75
2022-12-24T13:28:37.230Z,25.10
2022-12-24T13:31:30.359Z,22.55
2022-12-24T13:34:02.509Z,20.23
2022-12-24T13:37:06.681Z,18.60
2022-12-24T13:40:15.857Z,16.67
2022-12-24T13:43:13.956Z,19.63
2022-12-24T13:45:53.130Z,18.80
2022-12-24T13:48:32.606Z,19.87
2022-12-24T13:53:35.733Z,17.05
2022-12-24T13:56:10.960Z,17.15
2022-12-24T13:58:44.916Z,17.23
2022-12-24T14:01:18.405Z,17.23
2022-12-24T14:03:50.327Z,17.58
2022-12-24T14:06:26.200Z,15.95
2022-12-24T14:08:58.557Z,14.20
2022-12-24T14:11:34.644Z,15.95
2022-12-24T14:14:27.138Z,15.95
2022-12-24T14:16:59.615Z,16.88
2022-12-24T14:19:39.928Z,21.67
2022-12-24T14:22:25.673Z,24.30
2022-12-24T14:24:58.917Z,22.98
2022-12-24T14:27:39.921Z,29.38
2022-12-24T14:30:19.615Z,26.17
2022-12-24T14:32:50.859Z,20.00
2022-12-24T14:35:22.239Z,21.70
2022-12-24T14:37:58.263Z,19.73
2022-12-24T14:40:30.249Z,24.13
2022-12-24T14:43:09.436Z,28.20
2022-12-24T14:45:45.930Z,29.08
2022-12-24T14:48:23.406Z,21.17
2022-12-24T14:51:11.015Z,23.27
2022-12-24T14:53:57.881Z,21.90
2022-12-24T14:56:27.059Z,20.85
2022-12-24T14:59:04.478Z,16.70
2022-12-24T15:01:35.316Z,22.90
2022-12-24T15:04:15.432Z,17.30
2022-12-24T15:06:49.414Z,24.80
2022-12-24T15:09:21.432Z,27.38
2022-12-24T15:11:53.248Z,30.40
2022-12-24T15:14:26.385Z,48.22
2022-12-24T15:17:00.271Z,42.95
2022-12-24T15:19:35.724Z,61.53
2022-12-24T15:22:05.876Z,88.25
2022-12-24T15:24:37.402Z,98.88
2022-12-24T15:27:17.856Z,89.85
2022-12-24T15:29:50.816Z,107.63
2022-12-24T15:32:21.864Z,101.20
2022-12-24T15:34:52.975Z,107.78
2022-12-24T15:37:24.379Z,89.15
2022-12-24T15:39:57.742Z,92.43
2022-12-24T15:42:28.997Z,111.72
2022-12-24T15:45:03.794Z,119.70
2022-12-24T15:47:38.887Z,125.00
2022-12-24T15:50:18.642Z,118.95
2022-12-24T15:53:18.684Z,84.72
2022-12-24T15:55:41.903Z,103.85
2022-12-24T15:58:19.396Z,91.95
2022-12-24T16:01:05.285Z,100.68
2022-12-24T16:03:35.466Z,120.65
2022-12-24T16:06:06.389Z,111.18
2022-12-24T16:08:36.543Z,77.47
2022-12-24T16:11:15.971Z,84.60
2022-12-24T16:13:59.390Z,69.97
2022-12-24T16:16:39.152Z,76.82
2022-12-24T16:19:17.404Z,72.13
2022-12-24T16:21:46.940Z,102.93
2022-12-24T16:24:19.755Z,87.00
2022-12-24T16:26:49.706Z,86.68
2022-12-24T16:29:19.597Z,103.97
2022-12-24T16:31:53.835Z,104.65
2022-12-24T16:34:26.676Z,97.82
2022-12-24T16:36:56.793Z,91.53
2022-12-24T16:39:30.877Z,98.50
2022-12-24T16:42:19.870Z,104.57
2022-12-24T16:44:49.559Z,107.40
2022-12-24T16:47:23.586Z,82.95
2022-12-24T16:49:53.231Z,92.55
2022-12-24T16:52:23.988Z,71.85
2022-12-24T16:54:53.272Z,65.25
2022-12-24T16:57:25.190Z,104.50
2022-12-24T16:59:54.532Z,106.78
2022-12-24T17:02:26.139Z,89.00
2022-12-24T17:04:55.791Z,80.90
2022-12-24T17:07:25.104Z,99.20
2022-12-24T17:09:54.270Z,69.00
2022-12-24T17:12:23.534Z,105.63
2022-12-24T17:14:52.658Z,110.97
2022-12-24T17:17:26.229Z,77.53
2022-12-24T17:19:55.885Z,83.22
2022-12-24T17:22:27.324Z,83.55
2022-12-24T17:24:57.276Z,72.65
2022-12-24T17:27:26.724Z,88.25
2022-12-24T17:29:55.902Z,115.53
2022-12-24T17:32:27.273Z,99.78
2022-12-24T17:34:56.432Z,105.82
2022-12-24T17:37:25.704Z,101.85
2022-12-24T17:39:54.855Z,95.05
2022-12-24T17:42:24.107Z,130.18
2022-12-24T17:44:53.211Z,97.03
2022-12-24T17:47:22.583Z,97.32
2022-12-24T17:49:53.097Z,90.78
2022-12-24T17:52:22.492Z,86.47
2022-12-24T17:54:51.444Z,90.13
2022-12-24T17:57:20.839Z,105.00
2022-12-24T17:59:49.841Z,73.73
2022-12-24T18:02:19.370Z,76.10
2022-12-24T18:04:50.281Z,105.28
2022-12-24T18:07:21.091Z,90.63
2022-12-24T18:09:50.218Z,95.07
2022-12-24T18:12:19.455Z,98.20
2022-12-24T18:14:49.024Z,103.15
2022-12-24T18:17:18.321Z,110.53
2022-12-24T18:19:47.299Z,108.80
2022-12-24T18:22:18.022Z,107.80
2022-12-24T18:24:48.527Z,104.57
2022-12-24T18:27:17.809Z,109.45
2022-12-24T18:29:46.813Z,124.67
2022-12-24T18:32:16.982Z,108.13
2022-12-24T18:34:46.991Z,126.63
2022-12-24T18:37:16.263Z,136.93
2022-12-24T18:39:47.013Z,128.90
2022-12-24T18:42:16.380Z,124.72
2022-12-24T18:44:45.751Z,96.90
2022-12-24T18:47:15.290Z,88.20
2022-12-24T18:49:44.352Z,85.45
2022-12-24T18:52:17.901Z,72.18
2022-12-24T18:54:52.784Z,97.88
2022-12-24T18:57:22.173Z,98.78
2022-12-24T18:59:51.317Z,86.80
2022-12-24T19:02:20.768Z,111.13
2022-12-24T19:04:49.998Z,84.80
2022-12-24T19:07:19.278Z,92.40
2022-12-24T19:09:48.707Z,64.13
2022-12-24T19:12:19.425Z,69.97
2022-12-24T19:14:50.070Z,80.68
2022-12-24T19:17:19.376Z,66.45
2022-12-24T19:19:48.461Z,66.15
2022-12-24T19:22:17.838Z,94.95
2022-12-24T19:24:46.965Z,81.30
2022-12-24T19:27:16.273Z,115.75
2022-12-24T19:29:46.777Z,78.03
2022-12-24T19:32:16.086Z,99.32
2022-12-24T19:34:45.067Z,67.03
2022-12-24T19:37:14.337Z,84.13
2022-12-24T19:39:43.912Z,77.83
2022-12-24T19:42:13.220Z,80.95
2022-12-24T19:44:42.185Z,54.20
2022-12-24T19:47:13.088Z,61.35
2022-12-24T19:49:42.243Z,56.80
2022-12-24T19:52:11.499Z,61.88
2022-12-24T19:54:41.348Z,44.00
2022-12-24T19:59:40.855Z,47.45
2022-12-24T20:02:13.560Z,33.92
2022-12-24T20:04:42.910Z,38.13
2022-12-24T20:07:12.263Z,34.85
2022-12-24T20:09:41.450Z,35.42
2022-12-24T20:12:10.741Z,49.85
2022-12-24T20:14:40.099Z,52.67
2022-12-24T20:17:09.726Z,28.67
2022-12-24T20:19:40.561Z,28.70
2022-12-24T20:22:10.040Z,25.70
2022-12-24T20:24:40.022Z,31.47
2022-12-24T20:27:09.341Z,40.30
2022-12-24T20:29:38.482Z,37.88
2022-12-24T20:32:08.281Z,22.08
2022-12-24T20:34:37.619Z,30.05
2022-12-24T20:37:08.247Z,26.98
2022-12-24T20:39:37.673Z,25.20
2022-12-24T20:42:07.052Z,34.58
2022-12-24T20:44:36.041Z,33.63
2022-12-24T20:47:05.563Z,22.83
2022-12-24T20:49:34.537Z,25.02
2022-12-24T20:52:03.829Z,23.50
2022-12-24T20:54:34.192Z,24.00
2022-12-24T20:57:03.485Z,19.70
2022-12-24T20:59:32.525Z,21.53
2022-12-24T21:02:02.008Z,29.70
2022-12-24T21:04:31.257Z,26.80
2022-12-24T21:07:00.541Z,24.65
2022-12-24T21:09:29.690Z,30.70
2022-12-24T21:12:17.796Z,30.05
2022-12-24T21:14:47.117Z,24.67
2022-12-24T21:17:16.417Z,25.40
2022-12-24T21:19:45.557Z,27.65
2022-12-24T21:22:14.932Z,31.10
2022-12-24T21:24:44.141Z,29.27
2022-12-24T21:27:14.799Z,38.17
2022-12-24T21:29:44.237Z,32.38
2022-12-24T21:32:13.628Z,32.20
2022-12-24T21:34:42.761Z,31.90
2022-12-24T21:37:12.282Z,32.33
2022-12-24T21:39:41.418Z,36.30
2022-12-24T21:42:10.757Z,30.67
2022-12-24T21:44:41.615Z,30.88
2022-12-24T21:47:11.073Z,39.05
2022-12-24T21:49:57.815Z,43.45
2022-12-24T21:52:27.244Z,31.52
2022-12-24T21:54:55.210Z,42.03
2022-12-24T21:57:42.051Z,45.65
2022-12-24T22:00:26.971Z,37.45
2022-12-24T22:02:59.371Z,43.80
2022-12-24T22:05:29.530Z,44.00
2022-12-24T22:08:16.538Z,33.40
2022-12-24T22:11:03.091Z,36.63
2022-12-24T22:13:33.478Z,34.22
2022-12-24T22:18:32.917Z,28.60
2022-12-24T22:21:03.594Z,36.40
2022-12-24T22:23:37.070Z,42.63
2022-12-24T22:26:12.913Z,37.17
2022-12-24T22:28:42.597Z,42.60
2022-12-24T22:31:19.376Z,33.20
2022-12-24T22:33:49.075Z,39.25
2022-12-24T22:36:18.449Z,44.97
2022-12-24T22:41:17.299Z,51.65
2022-12-24T22:43:47.466Z,45.15
2022-12-24T22:46:16.867Z,62.00
2022-12-24T22:48:47.725Z,84.05
2022-12-24T22:51:18.800Z,66.50
2022-12-24T22:53:48.654Z,59.72
2022-12-24T22:56:20.833Z,69.82
2022-12-24T22:58:53.904Z,70.78
2022-12-24T23:01:34.315Z,80.68
2022-12-24T23:04:06.479Z,70.55
2022-12-24T23:06:36.767Z,66.35
2022-12-24T23:09:07.978Z,69.85
2022-12-24T23:11:37.579Z,85.35
2022-12-24T23:14:23.990Z,59.58
2022-12-24T23:16:53.134Z,67.70
2022-12-24T23:19:23.772Z,78.05
2022-12-24T23:21:52.888Z,60.70
2022-12-24T23:24:22.154Z,76.97
2022-12-24T23:26:51.155Z,70.10
2022-12-24T23:29:20.501Z,45.92
2022-12-24T23:31:49.554Z,71.72
2022-12-24T23:34:18.924Z,57.95
2022-12-24T23:36:49.293Z,85.45
2022-12-24T23:39:18.847Z,58.65
2022-12-24T23:41:47.843Z,63.67
2022-12-24T23:44:17.119Z,66.10
2022-12-24T23:46:46.184Z,61.93
2022-12-24T23:49:16.040Z,50.88
2022-12-24T23:51:45.193Z,64.85
2022-12-24T23:54:15.807Z,55.25
2022-12-24T23:56:44.953Z,54.15
2022-12-24T23:59:14.359Z,46.33
